Terminal Aerodrome Forecast
Issued by NWS Bismarck, ND

Home | Current Version | Previous Version | Graphics & Text | Print | Product List | Glossary On
Versions: 1 2 3 4 5 6 7 8 9 10 11 12 13 14 15 16 17 18 19
585
FTUS43 KBIS 242337
TAFISN
TAF
KISN 242337Z 2500/2524 27013KT P6SM -SHRA OVC060
     FM250300 19008KT P6SM VCSH BKN100
     FM250500 19007KT P6SM BKN130
     FM251500 24019G28KT P6SM BKN070
     FM252000 27023G32KT P6SM BKN045=

USA.gov is the U.S. government's official web portal to all federal, state and local government web resources and services.